CLEVELAND ARTCC (ZOB) FACILITY RUNWAY SELECTOR
METARS UPDATED AT 1012Z

Page auto refreshed every 5 minutes
FACILITYWINDVISIBILITY
CEILING
RUNWAY FLOWAPPROACHMETAR
KAGC340@0410SM
----
Calm Wind Flow
DEP: 28
ARR: 28
Visual ApproachKAGC 180953Z 34004KT 10SM CLR 16/13 A3004 RMK AO2 SLP167 T01560128
KBKL010@1010SM
----
6 Flow
DEP: 6L, 6R (GA)
ARR: 6L, 6R (GA)
Visual ApproachKBKL 180953Z 01010KT 10SM CLR 21/13 A3005 RMK AO2 SLP172 T02060133
KBUF010@0410SM
----
Calm Wind Flow
DEP: 23
ARR: 23
Visual ApproachKBUF 180954Z 01004KT 10SM SCT055 17/13 A3002 RMK AO2 SLP163 T01720133
KCAK010@0510SM
----
North Flow
DEP: 1
ARR: 5
Visual ApproachKCAK 180951Z 01005KT 10SM CLR 16/12 A3007 RMK AO2 SLP175 T01610122
KCGF050@0720SM
----
6 Flow
DEP: 6
ARR: 6
Visual ApproachKCGF 180145Z 05007KT 20SM FEW075 22/15 A3002
KCLE010@0610SM
----
South Flow
DEP: 6R
ARR: 6L
Visual ApproachKCLE 180951Z 01006KT 10SM FEW040 FEW065 19/14 A3008 RMK AO2 SLP180 T01940139
KDTW360@0510SM
----
Calm Wind Flow
DEP: 21R, 22L
ARR: 21L, 22R
Visual ApproachKDTW 180953Z 36005KT 10SM FEW180 16/13 A3010 RMK AO2 SLP188 T01610128
KERI350@0710SM
----
East Flow
DEP: 2 (GA), 6
ARR: 2 (GA), 6
Visual ApproachKERI 180951Z 35007KT 10SM CLR 20/13 A3004 RMK AO2 SLP167 T02000133
KFNTCalm10SM
----
Calm Wind Flow
DEP: 18
ARR: 18
Visual ApproachKFNT 180953Z 00000KT 10SM CLR 12/12 A3011 RMK AO2 SLP194 T01220117
KIAG020@0410SM
----
Calm Wind Flow
DEP: 28R, 28L (GA)
ARR: 28R, 28L (GA)
Visual ApproachKIAG 180953Z 02004KT 10SM SCT060 17/13 A3002 RMK AO2 SLP164 T01670133
KJST310@0410SM
----
Calm Wind Flow
DEP: 15
ARR: 15
Visual ApproachKJST 180954Z 31004KT 10SM CLR 14/11 A3004 RMK AO2 SLP162 T01390111
KLANCalm10SM
----
Calm Wind Flow
DEP: 18
ARR: 18
Visual ApproachKLAN 180953Z 00000KT 10SM CLR 12/11 A3013 RMK AO2 SLP200 T01220111
KPIT330@0610SM
----
Calm Wind Flow
DEP: 28R, 28C
ARR: 28R, 28L, 32 (GA)
Visual ApproachKPIT 180951Z 33006KT 10SM FEW250 16/12 A3004 RMK AO2 SLP171 T01560122
KROC030@1110SM
BKN065
4/7 Flow
DEP: 4, 7 (GA)
ARR: 4, 7 (GA)
Visual ApproachKROC 180954Z 03011KT 10SM BKN065 19/14 A3001 RMK AO2 SLP163 ACC S T01940144
KTOL010@0510SM
----
7/34 Flow
DEP: 7, 34 (GA)
ARR: 7, 34 (GA)
Visual ApproachKTOL 180952Z 01005KT 10SM CLR 16/13 A3008 RMK AO2 SLP183 T01610133
KYNGCalm10SM
----
Calm Wind Flow
DEP: 14
ARR: 14
Visual ApproachKYNG 180951Z 00000KT 10SM FEW070 13/12 A3005 RMK AO2 SLP173 T01280122
NOTE: Runway selection based on current VATSIM metar and ZOB SOPs.
Ceiling = Lowest reported ceiling.
GA = General Aviation aircraft only.
METAR Decode Key